Check out our new PWSWeather beta!
PWSweather.com
Personal Weather Stations
Station Observations
PICKERING
North Yorkshire, PickeringGB

North YorkshirePickeringGB

Lat: 54.2494, Lon: -0.7725

Elevation: 192

Station Type: Oregon Scientific WMR100

High Low Average
Temperature 49.3°F9.6°C 37.8°F3.2°C 41.4°F5.2°C
Dew Point 42.8°F6.0°C 32.0°F0.0°C 35.5°F1.9°C
Winds 8.6 mph 13.8 kmh 1.3 mph 2.1 kmh 5.0 mph N8.0 kmh N
Wind Gusts 12.5 mph20.1 kmh 1.3 mph2.1 kmh 7.0 mph11.3 kmh
Humidity 83% 71% 78%
Pressure 29.80 in1009.1 mb 29.18 in988.1 mb -
Precipitation 0.00 in0.0 mm - -
Hour Temp Dew Point Humidity Winds Wind Gusts Pressure Precip Precip Rate Daily Precip Total
12:00 AM 40.6°F4.8°C 35.6°F2.0°C 83% 5.1 mph N8.2 kmh N 7.4 mph11.9 kmh 29.18 in988.1 mb 0.00 in0.0 mm 0.00 in0.0 mm 0.00 in0.0 mm
12:10 AM 40.6°F4.8°C 35.6°F2.0°C 82% 5.2 mph N8.4 kmh N 10.1 mph16.3 kmh 29.18 in988.1 mb 0.00 in0.0 mm 0.00 in0.0 mm 0.00 in0.0 mm
12:20 AM 40.6°F4.8°C 35.6°F2.0°C 82% 3.2 mph N5.1 kmh N 4.9 mph7.9 kmh 29.18 in988.1 mb 0.00 in0.0 mm 0.00 in0.0 mm 0.00 in0.0 mm
12:30 AM 40.6°F4.8°C 35.6°F2.0°C 82% 3.5 mph N5.6 kmh N 6.3 mph10.1 kmh 29.18 in988.1 mb 0.00 in0.0 mm 0.00 in0.0 mm 0.00 in0.0 mm
12:40 AM 40.5°F4.7°C 35.6°F2.0°C 82% 4.1 mph N6.6 kmh N 6.3 mph10.1 kmh 29.18 in988.1 mb 0.00 in0.0 mm 0.00 in0.0 mm 0.00 in0.0 mm
12:50 AM 40.5°F4.7°C 35.6°F2.0°C 82% 5.5 mph N8.9 kmh N 8.5 mph13.7 kmh 29.18 in988.1 mb 0.00 in0.0 mm 0.00 in0.0 mm 0.00 in0.0 mm
01:00 AM 40.3°F4.6°C 35.6°F2.0°C 82% 4.2 mph N6.8 kmh N 7.4 mph11.9 kmh 29.18 in988.1 mb 0.00 in0.0 mm 0.00 in0.0 mm 0.00 in0.0 mm
01:10 AM 40.1°F4.5°C 35.6°F2.0°C 82% 4.6 mph N7.4 kmh N 10.5 mph16.9 kmh 29.18 in988.1 mb 0.00 in0.0 mm 0.00 in0.0 mm 0.00 in0.0 mm
01:20 AM 40.3°F4.6°C 35.6°F2.0°C 82% 4.1 mph N6.6 kmh N 6.5 mph10.5 kmh 29.18 in988.1 mb 0.00 in0.0 mm 0.00 in0.0 mm 0.00 in0.0 mm
01:30 AM 40.3°F4.6°C 35.6°F2.0°C 82% 4.1 mph N6.6 kmh N 5.6 mph9.0 kmh 29.18 in988.1 mb 0.00 in0.0 mm 0.00 in0.0 mm 0.00 in0.0 mm
01:40 AM 40.6°F4.8°C 35.6°F2.0°C 82% 4.1 mph N6.6 kmh N 5.6 mph9.0 kmh 29.21 in989.2 mb 0.00 in0.0 mm 0.00 in0.0 mm 0.00 in0.0 mm
01:50 AM 40.6°F4.8°C 35.6°F2.0°C 82% 5.1 mph N8.2 kmh N 7.8 mph12.6 kmh 29.21 in989.2 mb 0.00 in0.0 mm 0.00 in0.0 mm 0.00 in0.0 mm
02:00 AM 41.0°F5.0°C 37.4°F3.0°C 82% 7.0 mph N11.3 kmh N 10.1 mph16.3 kmh 29.21 in989.2 mb 0.00 in0.0 mm 0.00 in0.0 mm 0.00 in0.0 mm
02:10 AM 41.2°F5.1°C 37.4°F3.0°C 82% 6.1 mph N9.8 kmh N 10.1 mph16.3 kmh 29.21 in989.2 mb 0.00 in0.0 mm 0.00 in0.0 mm 0.00 in0.0 mm
02:20 AM 41.0°F5.0°C 37.4°F3.0°C 82% 5.0 mph N8.0 kmh N 7.6 mph12.2 kmh 29.21 in989.2 mb 0.00 in0.0 mm 0.00 in0.0 mm 0.00 in0.0 mm
02:30 AM 41.0°F5.0°C 37.4°F3.0°C 82% 5.5 mph N8.9 kmh N 10.1 mph16.3 kmh 29.21 in989.2 mb 0.00 in0.0 mm 0.00 in0.0 mm 0.00 in0.0 mm
02:40 AM 40.6°F4.8°C 35.6°F2.0°C 81% 4.7 mph N7.6 kmh N 7.4 mph11.9 kmh 29.21 in989.2 mb 0.00 in0.0 mm 0.00 in0.0 mm 0.00 in0.0 mm
02:50 AM 40.5°F4.7°C 35.6°F2.0°C 81% 5.3 mph N8.5 kmh N 7.6 mph12.2 kmh 29.24 in990.2 mb 0.00 in0.0 mm 0.00 in0.0 mm 0.00 in0.0 mm
03:00 AM 40.1°F4.5°C 35.6°F2.0°C 81% 4.2 mph N6.8 kmh N 6.9 mph11.1 kmh 29.24 in990.2 mb 0.00 in0.0 mm 0.00 in0.0 mm 0.00 in0.0 mm
03:10 AM 40.3°F4.6°C 35.6°F2.0°C 81% 4.3 mph N6.9 kmh N 7.2 mph11.6 kmh 29.21 in989.2 mb 0.00 in0.0 mm 0.00 in0.0 mm 0.00 in0.0 mm
03:20 AM 40.3°F4.6°C 35.6°F2.0°C 81% 4.7 mph N7.6 kmh N 6.9 mph11.1 kmh 29.24 in990.2 mb 0.00 in0.0 mm 0.00 in0.0 mm 0.00 in0.0 mm
03:30 AM 39.9°F4.4°C 33.8°F1.0°C 81% 3.8 mph N6.1 kmh N 5.6 mph9.0 kmh 29.24 in990.2 mb 0.00 in0.0 mm 0.00 in0.0 mm 0.00 in0.0 mm
03:40 AM 40.1°F4.5°C 35.6°F2.0°C 81% 4.8 mph N7.7 kmh N 8.1 mph13.0 kmh 29.24 in990.2 mb 0.00 in0.0 mm 0.00 in0.0 mm 0.00 in0.0 mm
03:50 AM 40.1°F4.5°C 35.6°F2.0°C 81% 4.2 mph N6.8 kmh N 7.2 mph11.6 kmh 29.24 in990.2 mb 0.00 in0.0 mm 0.00 in0.0 mm 0.00 in0.0 mm
04:00 AM 40.3°F4.6°C 35.6°F2.0°C 81% 3.5 mph N5.6 kmh N 9.2 mph14.8 kmh 29.24 in990.2 mb 0.00 in0.0 mm 0.00 in0.0 mm 0.00 in0.0 mm
04:10 AM 40.3°F4.6°C 35.6°F2.0°C 81% 5.6 mph N9.0 kmh N 9.6 mph15.4 kmh 29.24 in990.2 mb 0.00 in0.0 mm 0.00 in0.0 mm 0.00 in0.0 mm
04:20 AM 40.5°F4.7°C 35.6°F2.0°C 80% 6.4 mph N10.3 kmh N 10.7 mph17.2 kmh 29.24 in990.2 mb 0.00 in0.0 mm 0.00 in0.0 mm 0.00 in0.0 mm
04:30 AM 40.5°F4.7°C 35.6°F2.0°C 80% 6.0 mph N9.7 kmh N 8.5 mph13.7 kmh 29.24 in990.2 mb 0.00 in0.0 mm 0.00 in0.0 mm 0.00 in0.0 mm
04:40 AM 40.5°F4.7°C 35.6°F2.0°C 80% 6.5 mph N10.5 kmh N 8.1 mph13.0 kmh 29.24 in990.2 mb 0.00 in0.0 mm 0.00 in0.0 mm 0.00 in0.0 mm
04:50 AM 40.3°F4.6°C 35.6°F2.0°C 80% 3.0 mph N4.8 kmh N 8.9 mph14.3 kmh 29.27 in991.2 mb 0.00 in0.0 mm 0.00 in0.0 mm 0.00 in0.0 mm
05:00 AM 40.3°F4.6°C 35.6°F2.0°C 80% 4.6 mph N7.4 kmh N 7.4 mph11.9 kmh 29.27 in991.2 mb 0.00 in0.0 mm 0.00 in0.0 mm 0.00 in0.0 mm
05:10 AM 40.1°F4.5°C 35.6°F2.0°C 81% 3.9 mph N6.3 kmh N 7.6 mph12.2 kmh 29.27 in991.2 mb 0.00 in0.0 mm 0.00 in0.0 mm 0.00 in0.0 mm
05:20 AM 39.9°F4.4°C 33.8°F1.0°C 81% 4.1 mph N6.6 kmh N 7.2 mph11.6 kmh 29.27 in991.2 mb 0.00 in0.0 mm 0.00 in0.0 mm 0.00 in0.0 mm
05:30 AM 39.7°F4.3°C 33.8°F1.0°C 81% 4.6 mph N7.4 kmh N 7.2 mph11.6 kmh 29.27 in991.2 mb 0.00 in0.0 mm 0.00 in0.0 mm 0.00 in0.0 mm
05:40 AM 39.6°F4.2°C 33.8°F1.0°C 81% 4.3 mph N6.9 kmh N 5.6 mph9.0 kmh 29.27 in991.2 mb 0.00 in0.0 mm 0.00 in0.0 mm 0.00 in0.0 mm
05:50 AM 39.4°F4.1°C 33.8°F1.0°C 82% 3.9 mph N6.3 kmh N 6.5 mph10.5 kmh 29.27 in991.2 mb 0.00 in0.0 mm 0.00 in0.0 mm 0.00 in0.0 mm
06:00 AM 39.2°F4.0°C 33.8°F1.0°C 82% 4.3 mph N6.9 kmh N 7.2 mph11.6 kmh 29.27 in991.2 mb 0.00 in0.0 mm 0.00 in0.0 mm 0.00 in0.0 mm
06:10 AM 39.2°F4.0°C 33.8°F1.0°C 82% 2.8 mph N4.5 kmh N 4.0 mph6.4 kmh 29.27 in991.2 mb 0.00 in0.0 mm 0.00 in0.0 mm 0.00 in0.0 mm
06:20 AM 39.2°F4.0°C 33.8°F1.0°C 82% 3.2 mph N5.1 kmh N 4.9 mph7.9 kmh 29.30 in992.2 mb 0.00 in0.0 mm 0.00 in0.0 mm 0.00 in0.0 mm
06:30 AM 39.0°F3.9°C 33.8°F1.0°C 82% 3.6 mph N5.8 kmh N 6.0 mph9.7 kmh 29.30 in992.2 mb 0.00 in0.0 mm 0.00 in0.0 mm 0.00 in0.0 mm
06:40 AM 38.8°F3.8°C 33.8°F1.0°C 82% 3.2 mph N5.1 kmh N 6.5 mph10.5 kmh 29.30 in992.2 mb 0.00 in0.0 mm 0.00 in0.0 mm 0.00 in0.0 mm
06:50 AM 39.0°F3.9°C 33.8°F1.0°C 82% 4.5 mph N7.2 kmh N 6.5 mph10.5 kmh 29.30 in992.2 mb 0.00 in0.0 mm 0.00 in0.0 mm 0.00 in0.0 mm
07:00 AM 39.0°F3.9°C 33.8°F1.0°C 82% 3.7 mph N6.0 kmh N 6.7 mph10.8 kmh 29.30 in992.2 mb 0.00 in0.0 mm 0.00 in0.0 mm 0.00 in0.0 mm
07:10 AM 39.0°F3.9°C 33.8°F1.0°C 81% 3.5 mph N5.6 kmh N 6.0 mph9.7 kmh 29.30 in992.2 mb 0.00 in0.0 mm 0.00 in0.0 mm 0.00 in0.0 mm
07:20 AM 39.0°F3.9°C 33.8°F1.0°C 82% 4.0 mph N6.4 kmh N 6.3 mph10.1 kmh 29.33 in993.2 mb 0.00 in0.0 mm 0.00 in0.0 mm 0.00 in0.0 mm
07:30 AM 39.2°F4.0°C 33.8°F1.0°C 81% 4.5 mph N7.2 kmh N 6.0 mph9.7 kmh 29.33 in993.2 mb 0.00 in0.0 mm 0.00 in0.0 mm 0.00 in0.0 mm
07:40 AM 39.2°F4.0°C 33.8°F1.0°C 81% 4.6 mph N7.4 kmh N 7.8 mph12.6 kmh 29.33 in993.2 mb 0.00 in0.0 mm 0.00 in0.0 mm 0.00 in0.0 mm
07:50 AM 39.2°F4.0°C 33.8°F1.0°C 81% 3.7 mph N6.0 kmh N 6.0 mph9.7 kmh 29.33 in993.2 mb 0.00 in0.0 mm 0.00 in0.0 mm 0.00 in0.0 mm
08:00 AM 39.4°F4.1°C 33.8°F1.0°C 81% 4.6 mph N7.4 kmh N 6.0 mph9.7 kmh 29.33 in993.2 mb 0.00 in0.0 mm 0.00 in0.0 mm 0.00 in0.0 mm
08:10 AM 39.2°F4.0°C 33.8°F1.0°C 81% 3.0 mph N4.8 kmh N 4.0 mph6.4 kmh 29.33 in993.2 mb 0.00 in0.0 mm 0.00 in0.0 mm 0.00 in0.0 mm
08:20 AM 39.4°F4.1°C 33.8°F1.0°C 81% 3.7 mph N6.0 kmh N 7.2 mph11.6 kmh 29.33 in993.2 mb 0.00 in0.0 mm 0.00 in0.0 mm 0.00 in0.0 mm
08:30 AM 39.2°F4.0°C 33.8°F1.0°C 81% 3.4 mph N5.5 kmh N 3.8 mph6.1 kmh 29.33 in993.2 mb 0.00 in0.0 mm 0.00 in0.0 mm 0.00 in0.0 mm
08:40 AM 39.4°F4.1°C 33.8°F1.0°C 80% 4.8 mph N7.7 kmh N 6.3 mph10.1 kmh 29.33 in993.2 mb 0.00 in0.0 mm 0.00 in0.0 mm 0.00 in0.0 mm
08:50 AM 39.4°F4.1°C 33.8°F1.0°C 80% 3.5 mph N5.6 kmh N 3.8 mph6.1 kmh 29.36 in994.2 mb 0.00 in0.0 mm 0.00 in0.0 mm 0.00 in0.0 mm
09:00 AM 39.7°F4.3°C 33.8°F1.0°C 80% 5.7 mph N9.2 kmh N 8.1 mph13.0 kmh 29.36 in994.2 mb 0.00 in0.0 mm 0.00 in0.0 mm 0.00 in0.0 mm
09:10 AM 39.7°F4.3°C 33.8°F1.0°C 80% 4.9 mph N7.9 kmh N 5.6 mph9.0 kmh 29.36 in994.2 mb 0.00 in0.0 mm 0.00 in0.0 mm 0.00 in0.0 mm
09:20 AM 40.1°F4.5°C 35.6°F2.0°C 80% 3.1 mph N5.0 kmh N 3.1 mph5.0 kmh 29.36 in994.2 mb 0.00 in0.0 mm 0.00 in0.0 mm 0.00 in0.0 mm
09:30 AM 40.3°F4.6°C 35.6°F2.0°C 80% 3.1 mph N5.0 kmh N 3.1 mph5.0 kmh 29.36 in994.2 mb 0.00 in0.0 mm 0.00 in0.0 mm 0.00 in0.0 mm
09:40 AM 40.5°F4.7°C 35.6°F2.0°C 80% 5.2 mph N8.4 kmh N 5.4 mph8.7 kmh 29.39 in995.3 mb 0.00 in0.0 mm 0.00 in0.0 mm 0.00 in0.0 mm
09:50 AM 40.6°F4.8°C 35.6°F2.0°C 80% 5.4 mph N8.7 kmh N 5.4 mph8.7 kmh 29.39 in995.3 mb 0.00 in0.0 mm 0.00 in0.0 mm 0.00 in0.0 mm
10:00 AM 40.8°F4.9°C 35.6°F2.0°C 80% 5.4 mph N8.7 kmh N 5.4 mph8.7 kmh 29.39 in995.3 mb 0.00 in0.0 mm 0.00 in0.0 mm 0.00 in0.0 mm
10:10 AM 41.0°F5.0°C 35.6°F2.0°C 80% 5.4 mph N8.7 kmh N 5.4 mph8.7 kmh 29.39 in995.3 mb 0.00 in0.0 mm 0.00 in0.0 mm 0.00 in0.0 mm
10:20 AM 41.2°F5.1°C 35.6°F2.0°C 80% 5.4 mph N8.7 kmh N 5.4 mph8.7 kmh 29.41 in995.9 mb 0.00 in0.0 mm 0.00 in0.0 mm 0.00 in0.0 mm
10:30 AM 41.5°F5.3°C 37.4°F3.0°C 80% 5.4 mph N8.7 kmh N 5.4 mph8.7 kmh 29.41 in995.9 mb 0.00 in0.0 mm 0.00 in0.0 mm 0.00 in0.0 mm
10:40 AM 41.5°F5.3°C 37.4°F3.0°C 80% 5.4 mph N8.7 kmh N 5.4 mph8.7 kmh 29.41 in995.9 mb 0.00 in0.0 mm 0.00 in0.0 mm 0.00 in0.0 mm
10:50 AM 41.5°F5.3°C 35.6°F2.0°C 79% 5.4 mph N8.7 kmh N 5.4 mph8.7 kmh 29.41 in995.9 mb 0.00 in0.0 mm 0.00 in0.0 mm 0.00 in0.0 mm
11:00 AM 41.9°F5.5°C 37.4°F3.0°C 80% 5.4 mph N8.7 kmh N 5.4 mph8.7 kmh 29.41 in995.9 mb 0.00 in0.0 mm 0.00 in0.0 mm 0.00 in0.0 mm
11:10 AM 42.1°F5.6°C 37.4°F3.0°C 79% 5.4 mph N8.7 kmh N 5.4 mph8.7 kmh 29.41 in995.9 mb 0.00 in0.0 mm 0.00 in0.0 mm 0.00 in0.0 mm
11:20 AM 42.3°F5.7°C 37.4°F3.0°C 79% 5.4 mph N8.7 kmh N 5.4 mph8.7 kmh 29.41 in995.9 mb 0.00 in0.0 mm 0.00 in0.0 mm 0.00 in0.0 mm
11:30 AM 42.3°F5.7°C 37.4°F3.0°C 79% 3.6 mph N5.8 kmh N 3.6 mph5.8 kmh 29.41 in995.9 mb 0.00 in0.0 mm 0.00 in0.0 mm 0.00 in0.0 mm
11:40 AM 42.3°F5.7°C 37.4°F3.0°C 80% 1.7 mph N2.7 kmh N 3.6 mph5.8 kmh 29.45 in997.3 mb 0.00 in0.0 mm 0.00 in0.0 mm 0.00 in0.0 mm
11:50 AM 44.2°F6.8°C 37.4°F3.0°C 79% 1.3 mph N2.1 kmh N 1.3 mph2.1 kmh 29.45 in997.3 mb 0.00 in0.0 mm 0.00 in0.0 mm 0.00 in0.0 mm
12:00 PM 46.0°F7.8°C 39.2°F4.0°C 78% 3.8 mph N6.1 kmh N 3.8 mph6.1 kmh 29.45 in997.3 mb 0.00 in0.0 mm 0.00 in0.0 mm 0.00 in0.0 mm
12:10 PM 46.8°F8.2°C 41.0°F5.0°C 78% 4.5 mph N7.2 kmh N 7.8 mph12.6 kmh 29.45 in997.3 mb 0.00 in0.0 mm 0.00 in0.0 mm 0.00 in0.0 mm
12:20 PM 47.8°F8.8°C 42.8°F6.0°C 77% 3.8 mph N6.1 kmh N 4.3 mph6.9 kmh 29.45 in997.3 mb 0.00 in0.0 mm 0.00 in0.0 mm 0.00 in0.0 mm
12:30 PM 48.7°F9.3°C 42.8°F6.0°C 76% 3.9 mph N6.3 kmh N 4.3 mph6.9 kmh 29.45 in997.3 mb 0.00 in0.0 mm 0.00 in0.0 mm 0.00 in0.0 mm
12:40 PM 49.1°F9.5°C 42.8°F6.0°C 75% 3.2 mph N5.1 kmh N 3.8 mph6.1 kmh 29.45 in997.3 mb 0.00 in0.0 mm 0.00 in0.0 mm 0.00 in0.0 mm
12:50 PM 49.3°F9.6°C 42.8°F6.0°C 74% 5.4 mph N8.7 kmh N 10.7 mph17.2 kmh 29.47 in998.0 mb 0.00 in0.0 mm 0.00 in0.0 mm 0.00 in0.0 mm
01:00 PM 48.9°F9.4°C 41.0°F5.0°C 74% 4.7 mph N7.6 kmh N 8.5 mph13.7 kmh 29.47 in998.0 mb 0.00 in0.0 mm 0.00 in0.0 mm 0.00 in0.0 mm
01:10 PM 48.9°F9.4°C 41.0°F5.0°C 73% 8.5 mph N13.7 kmh N 8.5 mph13.7 kmh 29.47 in998.0 mb 0.00 in0.0 mm 0.00 in0.0 mm 0.00 in0.0 mm
01:20 PM 48.4°F9.1°C 41.0°F5.0°C 72% 8.5 mph N13.7 kmh N 8.5 mph13.7 kmh 29.47 in998.0 mb 0.00 in0.0 mm 0.00 in0.0 mm 0.00 in0.0 mm
01:30 PM 48.0°F8.9°C 41.0°F5.0°C 72% 6.9 mph N11.1 kmh N 7.6 mph12.2 kmh 29.47 in998.0 mb 0.00 in0.0 mm 0.00 in0.0 mm 0.00 in0.0 mm
01:40 PM 47.8°F8.8°C 41.0°F5.0°C 72% 6.6 mph N10.6 kmh N 7.4 mph11.9 kmh 29.50 in999.0 mb 0.00 in0.0 mm 0.00 in0.0 mm 0.00 in0.0 mm
01:50 PM 46.9°F8.3°C 39.2°F4.0°C 72% 6.3 mph N10.1 kmh N 6.3 mph10.1 kmh 29.50 in999.0 mb 0.00 in0.0 mm 0.00 in0.0 mm 0.00 in0.0 mm
02:00 PM 46.6°F8.1°C 39.2°F4.0°C 72% 7.6 mph N12.2 kmh N 7.6 mph12.2 kmh 29.50 in999.0 mb 0.00 in0.0 mm 0.00 in0.0 mm 0.00 in0.0 mm
02:10 PM 46.8°F8.2°C 37.4°F3.0°C 71% 7.1 mph N11.4 kmh N 7.6 mph12.2 kmh 29.50 in999.0 mb 0.00 in0.0 mm 0.00 in0.0 mm 0.00 in0.0 mm
02:20 PM 46.6°F8.1°C 37.4°F3.0°C 71% 5.8 mph N9.3 kmh N 7.4 mph11.9 kmh 29.50 in999.0 mb 0.00 in0.0 mm 0.00 in0.0 mm 0.00 in0.0 mm
02:30 PM 46.6°F8.1°C 37.4°F3.0°C 71% 7.5 mph N12.1 kmh N 11.0 mph17.7 kmh 29.50 in999.0 mb 0.00 in0.0 mm 0.00 in0.0 mm 0.00 in0.0 mm
02:40 PM 46.6°F8.1°C 37.4°F3.0°C 71% 7.3 mph N11.7 kmh N 9.8 mph15.8 kmh 29.50 in999.0 mb 0.00 in0.0 mm 0.00 in0.0 mm 0.00 in0.0 mm
02:50 PM 46.4°F8.0°C 37.4°F3.0°C 71% 3.8 mph N6.1 kmh N 6.7 mph10.8 kmh 29.53 in1000.0 mb 0.00 in0.0 mm 0.00 in0.0 mm 0.00 in0.0 mm
03:00 PM 46.0°F7.8°C 37.4°F3.0°C 71% 5.7 mph N9.2 kmh N 8.1 mph13.0 kmh 29.53 in1000.0 mb 0.00 in0.0 mm 0.00 in0.0 mm 0.00 in0.0 mm
03:10 PM 46.0°F7.8°C 37.4°F3.0°C 71% 6.1 mph N9.8 kmh N 10.5 mph16.9 kmh 29.53 in1000.0 mb 0.00 in0.0 mm 0.00 in0.0 mm 0.00 in0.0 mm
03:20 PM 45.3°F7.4°C 37.4°F3.0°C 72% 5.7 mph N9.2 kmh N 8.9 mph14.3 kmh 29.53 in1000.0 mb 0.00 in0.0 mm 0.00 in0.0 mm 0.00 in0.0 mm
03:30 PM 44.6°F7.0°C 37.4°F3.0°C 72% 4.6 mph N7.4 kmh N 7.6 mph12.2 kmh 29.53 in1000.0 mb 0.00 in0.0 mm 0.00 in0.0 mm 0.00 in0.0 mm
03:40 PM 44.2°F6.8°C 35.6°F2.0°C 73% 4.8 mph N7.7 kmh N 8.1 mph13.0 kmh 29.53 in1000.0 mb 0.00 in0.0 mm 0.00 in0.0 mm 0.00 in0.0 mm
03:50 PM 43.9°F6.6°C 35.6°F2.0°C 73% 5.2 mph N8.4 kmh N 6.9 mph11.1 kmh 29.53 in1000.0 mb 0.00 in0.0 mm 0.00 in0.0 mm 0.00 in0.0 mm
04:10 PM 43.2°F6.2°C 35.6°F2.0°C 73% 5.0 mph N8.0 kmh N 7.2 mph11.6 kmh 29.56 in1001.0 mb 0.00 in0.0 mm 0.00 in0.0 mm 0.00 in0.0 mm
04:20 PM 42.8°F6.0°C 35.6°F2.0°C 74% 7.6 mph N12.2 kmh N 7.8 mph12.6 kmh 29.56 in1001.0 mb 0.00 in0.0 mm 0.00 in0.0 mm 0.00 in0.0 mm
04:30 PM 42.8°F6.0°C 35.6°F2.0°C 74% 6.1 mph N9.8 kmh N 8.5 mph13.7 kmh 29.56 in1001.0 mb 0.00 in0.0 mm 0.00 in0.0 mm 0.00 in0.0 mm
04:40 PM 42.6°F5.9°C 35.6°F2.0°C 74% 8.5 mph N13.7 kmh N 12.5 mph20.1 kmh 29.56 in1001.0 mb 0.00 in0.0 mm 0.00 in0.0 mm 0.00 in0.0 mm
04:50 PM 42.4°F5.8°C 35.6°F2.0°C 74% 6.8 mph N10.9 kmh N 12.5 mph20.1 kmh 29.59 in1002.0 mb 0.00 in0.0 mm 0.00 in0.0 mm 0.00 in0.0 mm
05:00 PM 42.3°F5.7°C 35.6°F2.0°C 74% 4.2 mph N6.8 kmh N 6.5 mph10.5 kmh 29.59 in1002.0 mb 0.00 in0.0 mm 0.00 in0.0 mm 0.00 in0.0 mm
05:10 PM 41.5°F5.3°C 33.8°F1.0°C 74% 5.0 mph N8.0 kmh N 6.9 mph11.1 kmh 29.59 in1002.0 mb 0.00 in0.0 mm 0.00 in0.0 mm 0.00 in0.0 mm
05:20 PM 41.7°F5.4°C 35.6°F2.0°C 75% 7.9 mph N12.7 kmh N 10.5 mph16.9 kmh 29.62 in1003.0 mb 0.00 in0.0 mm 0.00 in0.0 mm 0.00 in0.0 mm
05:30 PM 41.5°F5.3°C 35.6°F2.0°C 75% 4.5 mph N7.2 kmh N 6.3 mph10.1 kmh 29.62 in1003.0 mb 0.00 in0.0 mm 0.00 in0.0 mm 0.00 in0.0 mm
05:40 PM 41.4°F5.2°C 33.8°F1.0°C 75% 3.8 mph N6.1 kmh N 4.9 mph7.9 kmh 29.62 in1003.0 mb 0.00 in0.0 mm 0.00 in0.0 mm 0.00 in0.0 mm
05:50 PM 41.4°F5.2°C 33.8°F1.0°C 75% 3.4 mph NNE5.5 kmh NNE 5.6 mph9.0 kmh 29.62 in1003.0 mb 0.00 in0.0 mm 0.00 in0.0 mm 0.00 in0.0 mm
06:00 PM 41.2°F5.1°C 33.8°F1.0°C 75% 4.9 mph N7.9 kmh N 5.6 mph9.0 kmh 29.62 in1003.0 mb 0.00 in0.0 mm 0.00 in0.0 mm 0.00 in0.0 mm
06:10 PM 41.0°F5.0°C 33.8°F1.0°C 75% 5.9 mph N9.5 kmh N 7.8 mph12.6 kmh 29.62 in1003.0 mb 0.00 in0.0 mm 0.00 in0.0 mm 0.00 in0.0 mm
06:20 PM 41.0°F5.0°C 33.8°F1.0°C 75% 7.8 mph N12.6 kmh N 7.8 mph12.6 kmh 29.65 in1004.1 mb 0.00 in0.0 mm 0.00 in0.0 mm 0.00 in0.0 mm
06:30 PM 41.2°F5.1°C 33.8°F1.0°C 75% 6.1 mph N9.8 kmh N 7.8 mph12.6 kmh 29.65 in1004.1 mb 0.00 in0.0 mm 0.00 in0.0 mm 0.00 in0.0 mm
06:40 PM 41.2°F5.1°C 33.8°F1.0°C 75% 8.6 mph N13.8 kmh N 10.3 mph16.6 kmh 29.65 in1004.1 mb 0.00 in0.0 mm 0.00 in0.0 mm 0.00 in0.0 mm
06:50 PM 41.2°F5.1°C 33.8°F1.0°C 75% 7.5 mph N12.1 kmh N 10.1 mph16.3 kmh 29.65 in1004.1 mb 0.00 in0.0 mm 0.00 in0.0 mm 0.00 in0.0 mm
07:00 PM 40.8°F4.9°C 33.8°F1.0°C 75% 4.3 mph N6.9 kmh N 7.8 mph12.6 kmh 29.65 in1004.1 mb 0.00 in0.0 mm 0.00 in0.0 mm 0.00 in0.0 mm
07:10 PM 40.6°F4.8°C 33.8°F1.0°C 75% 4.4 mph N7.1 kmh N 7.2 mph11.6 kmh 29.65 in1004.1 mb 0.00 in0.0 mm 0.00 in0.0 mm 0.00 in0.0 mm
07:20 PM 40.6°F4.8°C 33.8°F1.0°C 75% 5.7 mph N9.2 kmh N 8.1 mph13.0 kmh 29.68 in1005.1 mb 0.00 in0.0 mm 0.00 in0.0 mm 0.00 in0.0 mm
07:30 PM 40.6°F4.8°C 33.8°F1.0°C 76% 5.1 mph N8.2 kmh N 7.2 mph11.6 kmh 29.68 in1005.1 mb 0.00 in0.0 mm 0.00 in0.0 mm 0.00 in0.0 mm
07:40 PM 40.5°F4.7°C 33.8°F1.0°C 75% 4.7 mph N7.6 kmh N 9.4 mph15.1 kmh 29.68 in1005.1 mb 0.00 in0.0 mm 0.00 in0.0 mm 0.00 in0.0 mm
07:50 PM 40.5°F4.7°C 33.8°F1.0°C 76% 5.4 mph N8.7 kmh N 7.4 mph11.9 kmh 29.68 in1005.1 mb 0.00 in0.0 mm 0.00 in0.0 mm 0.00 in0.0 mm
08:00 PM 40.3°F4.6°C 33.8°F1.0°C 76% 4.9 mph N7.9 kmh N 9.4 mph15.1 kmh 29.68 in1005.1 mb 0.00 in0.0 mm 0.00 in0.0 mm 0.00 in0.0 mm
08:10 PM 40.3°F4.6°C 33.8°F1.0°C 76% 4.7 mph N7.6 kmh N 10.7 mph17.2 kmh 29.71 in1006.1 mb 0.00 in0.0 mm 0.00 in0.0 mm 0.00 in0.0 mm
08:20 PM 40.1°F4.5°C 33.8°F1.0°C 76% 4.8 mph N7.7 kmh N 7.2 mph11.6 kmh 29.71 in1006.1 mb 0.00 in0.0 mm 0.00 in0.0 mm 0.00 in0.0 mm
08:30 PM 39.9°F4.4°C 33.8°F1.0°C 76% 5.1 mph N8.2 kmh N 7.4 mph11.9 kmh 29.71 in1006.1 mb 0.00 in0.0 mm 0.00 in0.0 mm 0.00 in0.0 mm
08:40 PM 40.1°F4.5°C 33.8°F1.0°C 76% 5.3 mph N8.5 kmh N 8.7 mph14.0 kmh 29.71 in1006.1 mb 0.00 in0.0 mm 0.00 in0.0 mm 0.00 in0.0 mm
08:50 PM 39.9°F4.4°C 33.8°F1.0°C 76% 4.2 mph N6.8 kmh N 6.0 mph9.7 kmh 29.71 in1006.1 mb 0.00 in0.0 mm 0.00 in0.0 mm 0.00 in0.0 mm
09:00 PM 39.9°F4.4°C 33.8°F1.0°C 76% 5.8 mph N9.3 kmh N 7.6 mph12.2 kmh 29.71 in1006.1 mb 0.00 in0.0 mm 0.00 in0.0 mm 0.00 in0.0 mm
09:10 PM 39.4°F4.1°C 32.0°F0.0°C 76% 2.8 mph N4.5 kmh N 6.0 mph9.7 kmh 29.74 in1007.1 mb 0.00 in0.0 mm 0.00 in0.0 mm 0.00 in0.0 mm
09:20 PM 39.4°F4.1°C 33.8°F1.0°C 77% 3.9 mph N6.3 kmh N 7.2 mph11.6 kmh 29.74 in1007.1 mb 0.00 in0.0 mm 0.00 in0.0 mm 0.00 in0.0 mm
09:30 PM 39.4°F4.1°C 33.8°F1.0°C 77% 6.6 mph N10.6 kmh N 8.1 mph13.0 kmh 29.74 in1007.1 mb 0.00 in0.0 mm 0.00 in0.0 mm 0.00 in0.0 mm
09:40 PM 39.6°F4.2°C 33.8°F1.0°C 77% 5.9 mph N9.5 kmh N 8.5 mph13.7 kmh 29.74 in1007.1 mb 0.00 in0.0 mm 0.00 in0.0 mm 0.00 in0.0 mm
09:50 PM 39.6°F4.2°C 33.8°F1.0°C 77% 4.5 mph N7.2 kmh N 6.3 mph10.1 kmh 29.74 in1007.1 mb 0.00 in0.0 mm 0.00 in0.0 mm 0.00 in0.0 mm
10:00 PM 39.4°F4.1°C 33.8°F1.0°C 77% 3.9 mph N6.3 kmh N 7.6 mph12.2 kmh 29.74 in1007.1 mb 0.00 in0.0 mm 0.00 in0.0 mm 0.00 in0.0 mm
10:10 PM 39.6°F4.2°C 33.8°F1.0°C 77% 5.2 mph N8.4 kmh N 5.8 mph9.3 kmh 29.77 in1008.1 mb 0.00 in0.0 mm 0.00 in0.0 mm 0.00 in0.0 mm
10:20 PM 39.4°F4.1°C 33.8°F1.0°C 77% 4.6 mph N7.4 kmh N 7.4 mph11.9 kmh 29.77 in1008.1 mb 0.00 in0.0 mm 0.00 in0.0 mm 0.00 in0.0 mm
10:30 PM 39.4°F4.1°C 33.8°F1.0°C 77% 3.9 mph N6.3 kmh N 7.4 mph11.9 kmh 29.77 in1008.1 mb 0.00 in0.0 mm 0.00 in0.0 mm 0.00 in0.0 mm
10:40 PM 39.2°F4.0°C 33.8°F1.0°C 77% 3.3 mph N5.3 kmh N 4.9 mph7.9 kmh 29.77 in1008.1 mb 0.00 in0.0 mm 0.00 in0.0 mm 0.00 in0.0 mm
10:50 PM 39.0°F3.9°C 33.8°F1.0°C 77% 4.2 mph N6.8 kmh N 6.5 mph10.5 kmh 29.77 in1008.1 mb 0.00 in0.0 mm 0.00 in0.0 mm 0.00 in0.0 mm
11:00 PM 39.0°F3.9°C 33.8°F1.0°C 78% 4.5 mph N7.2 kmh N 5.8 mph9.3 kmh 29.77 in1008.1 mb 0.00 in0.0 mm 0.00 in0.0 mm 0.00 in0.0 mm
11:10 PM 38.7°F3.7°C 32.0°F0.0°C 78% 4.3 mph N6.9 kmh N 6.3 mph10.1 kmh 29.80 in1009.1 mb 0.00 in0.0 mm 0.00 in0.0 mm 0.00 in0.0 mm
11:20 PM 38.8°F3.8°C 32.0°F0.0°C 78% 3.7 mph N6.0 kmh N 4.9 mph7.9 kmh 29.80 in1009.1 mb 0.00 in0.0 mm 0.00 in0.0 mm 0.00 in0.0 mm
11:30 PM 38.1°F3.4°C 32.0°F0.0°C 78% 1.6 mph N2.6 kmh N 4.9 mph7.9 kmh 29.80 in1009.1 mb 0.00 in0.0 mm 0.00 in0.0 mm 0.00 in0.0 mm
11:40 PM 37.9°F3.3°C 32.0°F0.0°C 78% 2.3 mph N3.7 kmh N 3.8 mph6.1 kmh 29.80 in1009.1 mb 0.00 in0.0 mm 0.00 in0.0 mm 0.00 in0.0 mm
11:50 PM 37.8°F3.2°C 32.0°F0.0°C 79% 2.4 mph N3.9 kmh N 3.4 mph5.5 kmh 29.80 in1009.1 mb 0.00 in0.0 mm 0.00 in0.0 mm 0.00 in0.0 mm